sensor_id;sensor_type;location;lat;lon;timestamp;P1;durP1;ratioP1;P2;durP2;ratioP2
68921;SDS011;55959;51.244;5.724;2022-12-17T00:01:29;44.70;;;26.40;;
68921;SDS011;55959;51.244;5.724;2022-12-17T00:04:13;44.77;;;26.63;;
68921;SDS011;55959;51.244;5.724;2022-12-17T00:06:57;40.27;;;26.37;;
68921;SDS011;55959;51.244;5.724;2022-12-17T00:09:41;43.70;;;27.40;;
68921;SDS011;55959;51.244;5.724;2022-12-17T00:12:25;42.13;;;25.30;;
68921;SDS011;55959;51.244;5.724;2022-12-17T00:15:09;44.60;;;28.60;;
68921;SDS011;55959;51.244;5.724;2022-12-17T00:18:00;42.63;;;25.33;;
68921;SDS011;55959;51.244;5.724;2022-12-17T00:20:53;41.57;;;26.43;;
68921;SDS011;55959;51.244;5.724;2022-12-17T00:23:43;40.90;;;25.93;;
68921;SDS011;55959;51.244;5.724;2022-12-17T00:26:28;41.87;;;26.10;;
68921;SDS011;55959;51.244;5.724;2022-12-17T00:29:13;45.83;;;26.77;;
68921;SDS011;55959;51.244;5.724;2022-12-17T00:31:57;45.97;;;28.13;;
68921;SDS011;55959;51.244;5.724;2022-12-17T00:34:42;42.57;;;27.17;;
68921;SDS011;55959;51.244;5.724;2022-12-17T00:37:26;48.43;;;27.37;;
68921;SDS011;55959;51.244;5.724;2022-12-17T00:40:11;44.67;;;27.20;;
68921;SDS011;55959;51.244;5.724;2022-12-17T00:45:47;43.40;;;27.80;;
68921;SDS011;55959;51.244;5.724;2022-12-17T00:48:31;39.93;;;25.93;;
68921;SDS011;55959;51.244;5.724;2022-12-17T00:51:15;44.43;;;27.83;;
68921;SDS011;55959;51.244;5.724;2022-12-17T00:54:00;45.77;;;26.60;;
68921;SDS011;55959;51.244;5.724;2022-12-17T00:56:44;42.03;;;25.30;;
68921;SDS011;55959;51.244;5.724;2022-12-17T00:59:39;42.13;;;24.97;;
68921;SDS011;55959;51.244;5.724;2022-12-17T01:02:23;39.57;;;24.40;;
68921;SDS011;55959;51.244;5.724;2022-12-17T01:05:08;43.33;;;26.20;;
68921;SDS011;55959;51.244;5.724;2022-12-17T01:07:53;40.60;;;25.23;;
68921;SDS011;55959;51.244;5.724;2022-12-17T01:10:38;42.73;;;26.47;;
68921;SDS011;55959;51.244;5.724;2022-12-17T01:13:23;39.77;;;25.97;;
68921;SDS011;55959;51.244;5.724;2022-12-17T01:16:12;39.90;;;24.87;;
68921;SDS011;55959;51.244;5.724;2022-12-17T01:18:57;41.23;;;25.23;;
68921;SDS011;55959;51.244;5.724;2022-12-17T01:21:43;37.70;;;24.87;;
68921;SDS011;55959;51.244;5.724;2022-12-17T01:24:28;38.23;;;24.43;;
68921;SDS011;55959;51.244;5.724;2022-12-17T01:27:12;36.80;;;25.50;;
68921;SDS011;55959;51.244;5.724;2022-12-17T01:29:57;38.80;;;25.33;;
68921;SDS011;55959;51.244;5.724;2022-12-17T01:32:41;40.10;;;25.73;;
68921;SDS011;55959;51.244;5.724;2022-12-17T01:35:25;41.47;;;26.47;;
68921;SDS011;55959;51.244;5.724;2022-12-17T01:38:11;35.57;;;24.67;;
68921;SDS011;55959;51.244;5.724;2022-12-17T01:40:57;39.53;;;23.97;;
68921;SDS011;55959;51.244;5.724;2022-12-17T01:43:42;40.50;;;25.40;;
68921;SDS011;55959;51.244;5.724;2022-12-17T01:46:27;33.67;;;22.77;;
68921;SDS011;55959;51.244;5.724;2022-12-17T01:49:16;34.67;;;23.53;;
68921;SDS011;55959;51.244;5.724;2022-12-17T01:52:04;40.40;;;25.07;;
68921;SDS011;55959;51.244;5.724;2022-12-17T01:54:49;43.10;;;26.50;;
68921;SDS011;55959;51.244;5.724;2022-12-17T01:57:33;39.33;;;26.57;;
68921;SDS011;55959;51.244;5.724;2022-12-17T02:00:18;37.53;;;25.23;;
68921;SDS011;55959;51.244;5.724;2022-12-17T02:03:02;42.73;;;25.83;;
68921;SDS011;55959;51.244;5.724;2022-12-17T02:12:44;41.83;;;27.07;;
68921;SDS011;55959;51.244;5.724;2022-12-17T02:15:39;35.57;;;24.10;;
68921;SDS011;55959;51.244;5.724;2022-12-17T02:18:36;43.13;;;27.60;;
68921;SDS011;55959;51.244;5.724;2022-12-17T02:21:29;46.70;;;27.33;;
68921;SDS011;55959;51.244;5.724;2022-12-17T02:24:27;40.03;;;27.20;;
68921;SDS011;55959;51.244;5.724;2022-12-17T02:27:36;41.93;;;26.80;;
68921;SDS011;55959;51.244;5.724;2022-12-17T02:30:20;38.70;;;24.37;;
68921;SDS011;55959;51.244;5.724;2022-12-17T02:33:05;42.37;;;26.47;;
68921;SDS011;55959;51.244;5.724;2022-12-17T02:35:52;43.53;;;26.90;;
68921;SDS011;55959;51.244;5.724;2022-12-17T02:38:42;45.87;;;26.97;;
68921;SDS011;55959;51.244;5.724;2022-12-17T02:41:28;40.03;;;26.17;;
68921;SDS011;55959;51.244;5.724;2022-12-17T02:44:18;38.43;;;24.97;;
68921;SDS011;55959;51.244;5.724;2022-12-17T02:47:05;37.40;;;25.10;;
68921;SDS011;55959;51.244;5.724;2022-12-17T02:49:52;37.37;;;24.50;;
68921;SDS011;55959;51.244;5.724;2022-12-17T02:52:38;38.90;;;25.23;;
68921;SDS011;55959;51.244;5.724;2022-12-17T02:55:27;38.27;;;24.63;;
68921;SDS011;55959;51.244;5.724;2022-12-17T02:58:11;42.93;;;27.60;;
68921;SDS011;55959;51.244;5.724;2022-12-17T03:00:55;40.07;;;26.33;;
68921;SDS011;55959;51.244;5.724;2022-12-17T03:03:39;41.10;;;25.87;;
68921;SDS011;55959;51.244;5.724;2022-12-17T03:06:23;37.87;;;25.97;;
68921;SDS011;55959;51.244;5.724;2022-12-17T03:09:07;47.27;;;27.57;;
68921;SDS011;55959;51.244;5.724;2022-12-17T03:11:51;42.20;;;26.30;;
68921;SDS011;55959;51.244;5.724;2022-12-17T03:14:35;41.30;;;25.77;;
68921;SDS011;55959;51.244;5.724;2022-12-17T03:17:19;41.80;;;25.87;;
68921;SDS011;55959;51.244;5.724;2022-12-17T03:20:04;38.70;;;25.37;;
68921;SDS011;55959;51.244;5.724;2022-12-17T03:22:49;41.33;;;27.03;;
68921;SDS011;55959;51.244;5.724;2022-12-17T03:25:32;43.07;;;27.40;;
68921;SDS011;55959;51.244;5.724;2022-12-17T03:28:17;42.30;;;26.10;;
68921;SDS011;55959;51.244;5.724;2022-12-17T03:31:01;43.00;;;28.53;;
68921;SDS011;55959;51.244;5.724;2022-12-17T03:33:45;43.27;;;26.90;;
68921;SDS011;55959;51.244;5.724;2022-12-17T03:36:29;43.73;;;27.50;;
68921;SDS011;55959;51.244;5.724;2022-12-17T03:39:14;42.37;;;26.20;;
68921;SDS011;55959;51.244;5.724;2022-12-17T03:41:58;46.03;;;27.90;;
68921;SDS011;55959;51.244;5.724;2022-12-17T03:44:43;42.77;;;25.50;;
68921;SDS011;55959;51.244;5.724;2022-12-17T03:47:27;36.40;;;25.37;;
68921;SDS011;55959;51.244;5.724;2022-12-17T03:50:11;46.70;;;28.40;;
68921;SDS011;55959;51.244;5.724;2022-12-17T03:52:55;43.93;;;25.83;;
68921;SDS011;55959;51.244;5.724;2022-12-17T03:55:39;41.50;;;26.73;;
68921;SDS011;55959;51.244;5.724;2022-12-17T03:58:23;41.67;;;25.30;;
68921;SDS011;55959;51.244;5.724;2022-12-17T04:01:07;40.00;;;25.40;;
68921;SDS011;55959;51.244;5.724;2022-12-17T04:03:51;35.43;;;25.57;;
68921;SDS011;55959;51.244;5.724;2022-12-17T04:06:35;43.83;;;26.40;;
68921;SDS011;55959;51.244;5.724;2022-12-17T04:09:19;38.60;;;25.53;;
68921;SDS011;55959;51.244;5.724;2022-12-17T04:12:03;44.53;;;27.60;;
68921;SDS011;55959;51.244;5.724;2022-12-17T04:14:47;40.03;;;25.50;;
68921;SDS011;55959;51.244;5.724;2022-12-17T04:17:31;37.13;;;24.57;;
68921;SDS011;55959;51.244;5.724;2022-12-17T04:20:15;40.17;;;25.13;;
68921;SDS011;55959;51.244;5.724;2022-12-17T04:22:59;37.70;;;24.97;;
68921;SDS011;55959;51.244;5.724;2022-12-17T04:25:43;38.73;;;25.57;;
68921;SDS011;55959;51.244;5.724;2022-12-17T04:28:27;39.10;;;24.70;;
68921;SDS011;55959;51.244;5.724;2022-12-17T04:31:11;38.60;;;25.27;;
68921;SDS011;55959;51.244;5.724;2022-12-17T04:33:56;44.33;;;26.60;;
68921;SDS011;55959;51.244;5.724;2022-12-17T04:36:40;41.83;;;26.10;;
68921;SDS011;55959;51.244;5.724;2022-12-17T04:39:25;35.57;;;25.47;;
68921;SDS011;55959;51.244;5.724;2022-12-17T04:42:09;37.30;;;23.63;;
68921;SDS011;55959;51.244;5.724;2022-12-17T04:44:53;36.40;;;24.70;;
68921;SDS011;55959;51.244;5.724;2022-12-17T04:47:37;39.43;;;25.50;;
68921;SDS011;55959;51.244;5.724;2022-12-17T04:50:21;41.03;;;25.57;;
68921;SDS011;55959;51.244;5.724;2022-12-17T04:53:06;37.57;;;24.83;;
68921;SDS011;55959;51.244;5.724;2022-12-17T04:55:53;35.37;;;25.40;;
68921;SDS011;55959;51.244;5.724;2022-12-17T04:58:38;38.13;;;24.60;;
68921;SDS011;55959;51.244;5.724;2022-12-17T05:01:22;43.37;;;26.10;;
68921;SDS011;55959;51.244;5.724;2022-12-17T05:04:07;38.80;;;25.47;;
68921;SDS011;55959;51.244;5.724;2022-12-17T05:06:51;37.20;;;25.27;;
68921;SDS011;55959;51.244;5.724;2022-12-17T05:09:35;38.10;;;23.73;;
68921;SDS011;55959;51.244;5.724;2022-12-17T05:12:19;42.70;;;25.77;;
68921;SDS011;55959;51.244;5.724;2022-12-17T05:15:03;38.27;;;25.07;;
68921;SDS011;55959;51.244;5.724;2022-12-17T05:17:51;39.17;;;25.03;;
68921;SDS011;55959;51.244;5.724;2022-12-17T05:20:35;40.93;;;25.40;;
68921;SDS011;55959;51.244;5.724;2022-12-17T05:23:20;39.63;;;25.57;;
68921;SDS011;55959;51.244;5.724;2022-12-17T05:26:06;37.73;;;25.10;;
68921;SDS011;55959;51.244;5.724;2022-12-17T05:28:59;39.97;;;25.17;;
68921;SDS011;55959;51.244;5.724;2022-12-17T05:31:43;45.23;;;25.47;;
68921;SDS011;55959;51.244;5.724;2022-12-17T05:34:27;37.63;;;25.20;;
68921;SDS011;55959;51.244;5.724;2022-12-17T05:37:19;37.27;;;26.70;;
68921;SDS011;55959;51.244;5.724;2022-12-17T05:40:03;36.67;;;24.87;;
68921;SDS011;55959;51.244;5.724;2022-12-17T05:42:56;37.10;;;24.73;;
68921;SDS011;55959;51.244;5.724;2022-12-17T05:45:43;39.73;;;25.47;;
68921;SDS011;55959;51.244;5.724;2022-12-17T05:48:29;39.43;;;25.47;;
68921;SDS011;55959;51.244;5.724;2022-12-17T05:51:16;40.63;;;25.83;;
68921;SDS011;55959;51.244;5.724;2022-12-17T05:54:01;40.43;;;26.23;;
68921;SDS011;55959;51.244;5.724;2022-12-17T05:56:45;44.63;;;27.20;;
68921;SDS011;55959;51.244;5.724;2022-12-17T05:59:29;40.13;;;27.23;;
68921;SDS011;55959;51.244;5.724;2022-12-17T06:02:13;42.87;;;27.07;;
68921;SDS011;55959;51.244;5.724;2022-12-17T06:04:57;40.90;;;27.07;;
68921;SDS011;55959;51.244;5.724;2022-12-17T06:07:41;45.40;;;28.00;;
68921;SDS011;55959;51.244;5.724;2022-12-17T06:10:25;39.50;;;26.97;;
68921;SDS011;55959;51.244;5.724;2022-12-17T06:13:10;41.27;;;27.97;;
68921;SDS011;55959;51.244;5.724;2022-12-17T06:15:54;41.00;;;27.30;;
68921;SDS011;55959;51.244;5.724;2022-12-17T06:18:38;40.87;;;25.97;;
68921;SDS011;55959;51.244;5.724;2022-12-17T06:21:22;44.47;;;28.43;;
68921;SDS011;55959;51.244;5.724;2022-12-17T06:24:07;41.67;;;27.30;;
68921;SDS011;55959;51.244;5.724;2022-12-17T06:26:52;39.53;;;25.97;;
68921;SDS011;55959;51.244;5.724;2022-12-17T06:29:36;40.27;;;26.67;;
68921;SDS011;55959;51.244;5.724;2022-12-17T06:32:21;40.93;;;27.50;;
68921;SDS011;55959;51.244;5.724;2022-12-17T06:35:05;38.47;;;27.33;;
68921;SDS011;55959;51.244;5.724;2022-12-17T06:37:59;45.50;;;27.50;;
68921;SDS011;55959;51.244;5.724;2022-12-17T06:40:46;40.73;;;26.27;;
68921;SDS011;55959;51.244;5.724;2022-12-17T06:43:30;41.87;;;28.33;;
68921;SDS011;55959;51.244;5.724;2022-12-17T06:46:14;43.50;;;27.93;;
68921;SDS011;55959;51.244;5.724;2022-12-17T06:48:58;43.90;;;27.77;;
68921;SDS011;55959;51.244;5.724;2022-12-17T06:51:42;40.03;;;26.50;;
68921;SDS011;55959;51.244;5.724;2022-12-17T06:54:26;38.97;;;25.00;;
68921;SDS011;55959;51.244;5.724;2022-12-17T06:57:11;39.80;;;27.00;;
68921;SDS011;55959;51.244;5.724;2022-12-17T06:59:55;45.23;;;29.40;;
68921;SDS011;55959;51.244;5.724;2022-12-17T07:02:39;41.33;;;27.67;;
68921;SDS011;55959;51.244;5.724;2022-12-17T07:05:23;34.90;;;26.50;;
68921;SDS011;55959;51.244;5.724;2022-12-17T07:08:07;41.83;;;28.70;;
68921;SDS011;55959;51.244;5.724;2022-12-17T07:10:51;41.10;;;27.57;;
68921;SDS011;55959;51.244;5.724;2022-12-17T07:13:35;40.73;;;27.07;;
68921;SDS011;55959;51.244;5.724;2022-12-17T07:16:19;40.80;;;27.73;;
68921;SDS011;55959;51.244;5.724;2022-12-17T07:19:04;42.73;;;28.60;;
68921;SDS011;55959;51.244;5.724;2022-12-17T07:21:48;43.73;;;28.63;;
68921;SDS011;55959;51.244;5.724;2022-12-17T07:24:32;44.63;;;28.63;;
68921;SDS011;55959;51.244;5.724;2022-12-17T07:27:16;37.33;;;26.57;;
68921;SDS011;55959;51.244;5.724;2022-12-17T07:30:00;42.53;;;28.73;;
68921;SDS011;55959;51.244;5.724;2022-12-17T07:32:44;44.97;;;28.60;;
68921;SDS011;55959;51.244;5.724;2022-12-17T07:35:29;44.20;;;28.87;;
68921;SDS011;55959;51.244;5.724;2022-12-17T07:38:13;43.47;;;29.93;;
68921;SDS011;55959;51.244;5.724;2022-12-17T07:40:57;45.20;;;29.37;;
68921;SDS011;55959;51.244;5.724;2022-12-17T07:43:42;47.23;;;29.33;;
68921;SDS011;55959;51.244;5.724;2022-12-17T07:46:26;42.53;;;29.97;;
68921;SDS011;55959;51.244;5.724;2022-12-17T07:49:10;49.43;;;29.37;;
68921;SDS011;55959;51.244;5.724;2022-12-17T07:51:55;43.77;;;28.03;;
68921;SDS011;55959;51.244;5.724;2022-12-17T07:54:39;40.77;;;27.80;;
68921;SDS011;55959;51.244;5.724;2022-12-17T07:57:23;42.70;;;27.87;;
68921;SDS011;55959;51.244;5.724;2022-12-17T08:00:08;44.10;;;28.93;;
68921;SDS011;55959;51.244;5.724;2022-12-17T08:02:59;45.27;;;29.50;;
68921;SDS011;55959;51.244;5.724;2022-12-17T08:05:44;45.73;;;28.90;;
68921;SDS011;55959;51.244;5.724;2022-12-17T08:08:29;45.30;;;29.40;;
68921;SDS011;55959;51.244;5.724;2022-12-17T08:11:13;50.53;;;30.97;;
68921;SDS011;55959;51.244;5.724;2022-12-17T08:13:57;48.37;;;30.60;;
68921;SDS011;55959;51.244;5.724;2022-12-17T08:16:41;45.03;;;28.57;;
68921;SDS011;55959;51.244;5.724;2022-12-17T08:19:25;40.90;;;27.80;;
68921;SDS011;55959;51.244;5.724;2022-12-17T08:22:09;41.47;;;27.90;;
68921;SDS011;55959;51.244;5.724;2022-12-17T08:24:53;44.23;;;28.90;;
68921;SDS011;55959;51.244;5.724;2022-12-17T08:27:37;43.67;;;28.43;;
68921;SDS011;55959;51.244;5.724;2022-12-17T08:30:21;45.93;;;29.97;;
68921;SDS011;55959;51.244;5.724;2022-12-17T08:33:05;40.13;;;28.07;;
68921;SDS011;55959;51.244;5.724;2022-12-17T08:35:53;43.70;;;27.27;;
68921;SDS011;55959;51.244;5.724;2022-12-17T08:38:39;40.83;;;27.70;;
68921;SDS011;55959;51.244;5.724;2022-12-17T08:41:26;42.97;;;28.40;;
68921;SDS011;55959;51.244;5.724;2022-12-17T08:44:10;41.13;;;28.20;;
68921;SDS011;55959;51.244;5.724;2022-12-17T08:46:54;38.90;;;26.90;;
68921;SDS011;55959;51.244;5.724;2022-12-17T08:49:38;46.13;;;31.37;;
68921;SDS011;55959;51.244;5.724;2022-12-17T08:52:22;42.53;;;29.37;;
68921;SDS011;55959;51.244;5.724;2022-12-17T08:55:06;44.60;;;27.90;;
68921;SDS011;55959;51.244;5.724;2022-12-17T08:57:52;44.90;;;29.70;;
68921;SDS011;55959;51.244;5.724;2022-12-17T09:00:38;42.47;;;28.77;;
68921;SDS011;55959;51.244;5.724;2022-12-17T09:03:22;39.50;;;27.80;;
68921;SDS011;55959;51.244;5.724;2022-12-17T09:06:07;38.73;;;26.23;;
68921;SDS011;55959;51.244;5.724;2022-12-17T09:08:51;44.87;;;30.13;;
68921;SDS011;55959;51.244;5.724;2022-12-17T09:11:35;38.50;;;25.33;;
68921;SDS011;55959;51.244;5.724;2022-12-17T09:14:19;41.07;;;27.63;;
68921;SDS011;55959;51.244;5.724;2022-12-17T09:17:03;45.07;;;28.57;;
68921;SDS011;55959;51.244;5.724;2022-12-17T09:19:47;41.83;;;28.20;;
68921;SDS011;55959;51.244;5.724;2022-12-17T09:22:31;40.43;;;27.00;;
68921;SDS011;55959;51.244;5.724;2022-12-17T09:25:16;38.83;;;26.40;;
68921;SDS011;55959;51.244;5.724;2022-12-17T09:28:00;37.87;;;26.30;;
68921;SDS011;55959;51.244;5.724;2022-12-17T09:30:46;43.30;;;28.63;;
68921;SDS011;55959;51.244;5.724;2022-12-17T09:33:31;38.43;;;26.43;;
68921;SDS011;55959;51.244;5.724;2022-12-17T09:36:15;42.17;;;28.73;;
68921;SDS011;55959;51.244;5.724;2022-12-17T09:38:59;41.80;;;28.30;;
68921;SDS011;55959;51.244;5.724;2022-12-17T09:41:49;43.63;;;28.53;;
68921;SDS011;55959;51.244;5.724;2022-12-17T09:44:48;40.77;;;26.67;;
68921;SDS011;55959;51.244;5.724;2022-12-17T09:47:47;42.70;;;27.07;;
68921;SDS011;55959;51.244;5.724;2022-12-17T09:50:52;42.07;;;27.70;;
68921;SDS011;55959;51.244;5.724;2022-12-17T09:53:37;39.83;;;27.07;;
68921;SDS011;55959;51.244;5.724;2022-12-17T09:56:27;43.53;;;30.37;;
68921;SDS011;55959;51.244;5.724;2022-12-17T09:59:17;42.00;;;26.37;;
68921;SDS011;55959;51.244;5.724;2022-12-17T10:02:16;46.80;;;29.37;;
68921;SDS011;55959;51.244;5.724;2022-12-17T10:05:03;44.30;;;29.27;;
68921;SDS011;55959;51.244;5.724;2022-12-17T10:07:52;46.70;;;30.90;;
68921;SDS011;55959;51.244;5.724;2022-12-17T10:10:40;48.60;;;31.10;;
68921;SDS011;55959;51.244;5.724;2022-12-17T10:13:28;46.07;;;28.73;;
68921;SDS011;55959;51.244;5.724;2022-12-17T10:16:33;45.37;;;29.93;;
68921;SDS011;55959;51.244;5.724;2022-12-17T10:19:30;44.53;;;28.40;;
68921;SDS011;55959;51.244;5.724;2022-12-17T10:22:19;42.77;;;27.93;;
68921;SDS011;55959;51.244;5.724;2022-12-17T10:25:14;40.60;;;27.17;;
68921;SDS011;55959;51.244;5.724;2022-12-17T10:28:05;43.63;;;28.93;;
68921;SDS011;55959;51.244;5.724;2022-12-17T10:30:59;47.80;;;29.83;;
68921;SDS011;55959;51.244;5.724;2022-12-17T10:33:45;45.53;;;29.10;;
68921;SDS011;55959;51.244;5.724;2022-12-17T10:36:29;49.30;;;31.10;;
68921;SDS011;55959;51.244;5.724;2022-12-17T10:39:22;44.33;;;28.10;;
68921;SDS011;55959;51.244;5.724;2022-12-17T10:48:43;43.93;;;26.83;;
68921;SDS011;55959;51.244;5.724;2022-12-17T11:03:01;45.23;;;27.30;;
68921;SDS011;55959;51.244;5.724;2022-12-17T11:05:47;50.60;;;29.63;;
68921;SDS011;55959;51.244;5.724;2022-12-17T11:08:35;49.23;;;27.97;;
68921;SDS011;55959;51.244;5.724;2022-12-17T11:11:21;42.50;;;26.23;;
68921;SDS011;55959;51.244;5.724;2022-12-17T11:14:07;44.43;;;26.83;;
68921;SDS011;55959;51.244;5.724;2022-12-17T11:16:53;46.67;;;29.37;;
68921;SDS011;55959;51.244;5.724;2022-12-17T11:19:45;48.17;;;29.33;;
68921;SDS011;55959;51.244;5.724;2022-12-17T11:22:47;46.63;;;28.33;;
68921;SDS011;55959;51.244;5.724;2022-12-17T11:25:52;51.33;;;29.07;;
68921;SDS011;55959;51.244;5.724;2022-12-17T11:28:57;47.97;;;29.77;;
68921;SDS011;55959;51.244;5.724;2022-12-17T11:37:59;47.43;;;27.87;;
68921;SDS011;55959;51.244;5.724;2022-12-17T11:41:01;44.83;;;27.00;;
68921;SDS011;55959;51.244;5.724;2022-12-17T12:02:32;50.37;;;29.07;;
68921;SDS011;55959;51.244;5.724;2022-12-17T12:05:56;51.93;;;30.23;;
68921;SDS011;55959;51.244;5.724;2022-12-17T12:08:48;51.97;;;30.97;;
68921;SDS011;55959;51.244;5.724;2022-12-17T12:15:03;52.30;;;30.33;;
68921;SDS011;55959;51.244;5.724;2022-12-17T12:18:23;49.10;;;27.87;;
68921;SDS011;55959;51.244;5.724;2022-12-17T12:24:27;51.20;;;27.83;;
68921;SDS011;55959;51.244;5.724;2022-12-17T12:30:37;48.73;;;25.67;;
68921;SDS011;55959;51.244;5.724;2022-12-17T12:33:52;41.47;;;23.57;;
68921;SDS011;55959;51.244;5.724;2022-12-17T12:36:41;40.97;;;21.40;;
68921;SDS011;55959;51.244;5.724;2022-12-17T12:39:33;47.60;;;25.27;;
68921;SDS011;55959;51.244;5.724;2022-12-17T12:43:04;40.53;;;24.10;;
68921;SDS011;55959;51.244;5.724;2022-12-17T12:46:06;41.93;;;23.83;;
68921;SDS011;55959;51.244;5.724;2022-12-17T12:52:01;46.27;;;26.17;;
68921;SDS011;55959;51.244;5.724;2022-12-17T12:57:34;46.47;;;25.97;;
68921;SDS011;55959;51.244;5.724;2022-12-17T13:00:20;40.07;;;22.37;;
68921;SDS011;55959;51.244;5.724;2022-12-17T13:03:08;40.37;;;22.20;;
68921;SDS011;55959;51.244;5.724;2022-12-17T13:14:43;39.27;;;21.40;;
68921;SDS011;55959;51.244;5.724;2022-12-17T13:17:38;48.90;;;25.13;;
68921;SDS011;55959;51.244;5.724;2022-12-17T13:20:24;38.73;;;21.33;;
68921;SDS011;55959;51.244;5.724;2022-12-17T13:22:53;42.47;;;23.47;;
68921;SDS011;55959;51.244;5.724;2022-12-17T13:26:09;35.23;;;20.13;;
68921;SDS011;55959;51.244;5.724;2022-12-17T13:28:48;39.70;;;20.20;;
68921;SDS011;55959;51.244;5.724;2022-12-17T13:31:27;38.30;;;20.47;;
68921;SDS011;55959;51.244;5.724;2022-12-17T13:34:00;36.70;;;21.37;;
68921;SDS011;55959;51.244;5.724;2022-12-17T13:36:48;39.77;;;22.83;;
68921;SDS011;55959;51.244;5.724;2022-12-17T13:42:18;38.53;;;20.67;;
68921;SDS011;55959;51.244;5.724;2022-12-17T13:44:58;41.20;;;21.73;;
68921;SDS011;55959;51.244;5.724;2022-12-17T13:47:29;38.97;;;21.97;;
68921;SDS011;55959;51.244;5.724;2022-12-17T13:49:59;43.50;;;23.77;;
68921;SDS011;55959;51.244;5.724;2022-12-17T13:52:28;36.97;;;21.43;;
68921;SDS011;55959;51.244;5.724;2022-12-17T13:55:12;38.13;;;21.50;;
68921;SDS011;55959;51.244;5.724;2022-12-17T13:57:47;40.00;;;21.33;;
68921;SDS011;55959;51.244;5.724;2022-12-17T14:00:22;41.97;;;22.80;;
68921;SDS011;55959;51.244;5.724;2022-12-17T14:02:50;42.40;;;23.03;;
68921;SDS011;55959;51.244;5.724;2022-12-17T14:05:28;40.47;;;21.73;;
68921;SDS011;55959;51.244;5.724;2022-12-17T14:07:59;43.60;;;25.40;;
68921;SDS011;55959;51.244;5.724;2022-12-17T14:10:26;39.10;;;22.67;;
68921;SDS011;55959;51.244;5.724;2022-12-17T14:13:04;40.13;;;21.57;;
68921;SDS011;55959;51.244;5.724;2022-12-17T14:15:37;43.00;;;23.50;;
68921;SDS011;55959;51.244;5.724;2022-12-17T14:18:14;42.37;;;23.77;;
68921;SDS011;55959;51.244;5.724;2022-12-17T14:20:43;38.93;;;23.27;;
68921;SDS011;55959;51.244;5.724;2022-12-17T14:23:30;41.40;;;21.73;;
68921;SDS011;55959;51.244;5.724;2022-12-17T14:25:56;39.57;;;20.73;;
68921;SDS011;55959;51.244;5.724;2022-12-17T14:28:23;42.37;;;22.47;;
68921;SDS011;55959;51.244;5.724;2022-12-17T14:31:18;36.80;;;21.30;;
68921;SDS011;55959;51.244;5.724;2022-12-17T14:33:58;36.37;;;20.80;;
68921;SDS011;55959;51.244;5.724;2022-12-17T14:36:31;38.60;;;20.60;;
68921;SDS011;55959;51.244;5.724;2022-12-17T14:39:01;33.80;;;19.50;;
68921;SDS011;55959;51.244;5.724;2022-12-17T14:41:41;36.23;;;20.40;;
68921;SDS011;55959;51.244;5.724;2022-12-17T14:44:26;37.57;;;20.10;;
68921;SDS011;55959;51.244;5.724;2022-12-17T14:47:05;38.20;;;21.03;;
68921;SDS011;55959;51.244;5.724;2022-12-17T14:49:52;38.10;;;21.37;;
68921;SDS011;55959;51.244;5.724;2022-12-17T14:52:29;36.70;;;20.73;;
68921;SDS011;55959;51.244;5.724;2022-12-17T14:55:00;43.37;;;25.00;;
68921;SDS011;55959;51.244;5.724;2022-12-17T14:57:26;42.10;;;24.13;;
68921;SDS011;55959;51.244;5.724;2022-12-17T14:59:52;42.30;;;24.07;;
68921;SDS011;55959;51.244;5.724;2022-12-17T15:02:22;43.50;;;23.87;;
68921;SDS011;55959;51.244;5.724;2022-12-17T15:04:51;42.63;;;22.60;;
68921;SDS011;55959;51.244;5.724;2022-12-17T15:07:25;46.57;;;24.90;;
68921;SDS011;55959;51.244;5.724;2022-12-17T15:09:54;40.10;;;22.83;;
68921;SDS011;55959;51.244;5.724;2022-12-17T15:12:21;46.13;;;25.80;;
68921;SDS011;55959;51.244;5.724;2022-12-17T15:14:49;53.33;;;28.60;;
68921;SDS011;55959;51.244;5.724;2022-12-17T15:17:15;40.93;;;25.07;;
68921;SDS011;55959;51.244;5.724;2022-12-17T15:19:41;45.40;;;25.40;;
68921;SDS011;55959;51.244;5.724;2022-12-17T15:22:09;48.07;;;26.33;;
68921;SDS011;55959;51.244;5.724;2022-12-17T15:24:40;42.30;;;23.60;;
68921;SDS011;55959;51.244;5.724;2022-12-17T15:27:07;42.50;;;25.77;;
68921;SDS011;55959;51.244;5.724;2022-12-17T15:29:38;40.53;;;23.93;;
68921;SDS011;55959;51.244;5.724;2022-12-17T15:32:04;41.13;;;24.67;;
68921;SDS011;55959;51.244;5.724;2022-12-17T15:34:30;41.97;;;24.53;;
68921;SDS011;55959;51.244;5.724;2022-12-17T15:36:56;44.20;;;25.23;;
68921;SDS011;55959;51.244;5.724;2022-12-17T15:39:22;41.63;;;24.07;;
68921;SDS011;55959;51.244;5.724;2022-12-17T15:41:48;40.53;;;23.93;;
68921;SDS011;55959;51.244;5.724;2022-12-17T15:44:32;41.40;;;23.47;;
68921;SDS011;55959;51.244;5.724;2022-12-17T15:46:58;46.50;;;24.83;;
68921;SDS011;55959;51.244;5.724;2022-12-17T15:49:23;41.70;;;25.17;;
68921;SDS011;55959;51.244;5.724;2022-12-17T15:51:49;44.10;;;25.30;;
68921;SDS011;55959;51.244;5.724;2022-12-17T15:54:15;46.47;;;24.43;;
68921;SDS011;55959;51.244;5.724;2022-12-17T15:56:40;45.80;;;26.23;;
68921;SDS011;55959;51.244;5.724;2022-12-17T15:59:06;42.97;;;24.37;;
68921;SDS011;55959;51.244;5.724;2022-12-17T16:01:33;41.70;;;25.87;;
68921;SDS011;55959;51.244;5.724;2022-12-17T16:03:59;49.57;;;26.37;;
68921;SDS011;55959;51.244;5.724;2022-12-17T16:06:25;37.97;;;22.73;;
68921;SDS011;55959;51.244;5.724;2022-12-17T16:08:51;37.73;;;21.17;;
68921;SDS011;55959;51.244;5.724;2022-12-17T16:11:18;40.23;;;23.03;;
68921;SDS011;55959;51.244;5.724;2022-12-17T16:13:44;39.20;;;22.37;;
68921;SDS011;55959;51.244;5.724;2022-12-17T16:16:09;38.30;;;21.80;;
68921;SDS011;55959;51.244;5.724;2022-12-17T16:18:35;39.33;;;22.10;;
68921;SDS011;55959;51.244;5.724;2022-12-17T16:21:02;40.40;;;23.30;;
68921;SDS011;55959;51.244;5.724;2022-12-17T16:23:30;36.80;;;21.90;;
68921;SDS011;55959;51.244;5.724;2022-12-17T16:25:57;38.37;;;21.40;;
68921;SDS011;55959;51.244;5.724;2022-12-17T16:28:25;41.00;;;23.00;;
68921;SDS011;55959;51.244;5.724;2022-12-17T16:31:02;41.57;;;22.73;;
68921;SDS011;55959;51.244;5.724;2022-12-17T16:33:35;38.90;;;22.47;;
68921;SDS011;55959;51.244;5.724;2022-12-17T16:36:03;40.40;;;23.03;;
68921;SDS011;55959;51.244;5.724;2022-12-17T16:38:31;35.37;;;21.27;;
68921;SDS011;55959;51.244;5.724;2022-12-17T16:40:58;46.13;;;25.33;;
68921;SDS011;55959;51.244;5.724;2022-12-17T16:43:27;42.30;;;23.50;;
68921;SDS011;55959;51.244;5.724;2022-12-17T16:45:56;36.63;;;21.30;;
68921;SDS011;55959;51.244;5.724;2022-12-17T16:48:22;40.57;;;22.33;;
68921;SDS011;55959;51.244;5.724;2022-12-17T16:50:48;46.03;;;22.37;;
68921;SDS011;55959;51.244;5.724;2022-12-17T16:53:16;44.43;;;22.03;;
68921;SDS011;55959;51.244;5.724;2022-12-17T16:55:43;38.13;;;21.70;;
68921;SDS011;55959;51.244;5.724;2022-12-17T16:58:11;41.43;;;23.93;;
68921;SDS011;55959;51.244;5.724;2022-12-17T17:00:41;42.70;;;24.90;;
68921;SDS011;55959;51.244;5.724;2022-12-17T17:03:08;37.83;;;22.17;;
68921;SDS011;55959;51.244;5.724;2022-12-17T17:05:34;42.67;;;22.43;;
68921;SDS011;55959;51.244;5.724;2022-12-17T17:08:03;34.27;;;20.60;;
68921;SDS011;55959;51.244;5.724;2022-12-17T17:10:29;44.50;;;23.07;;
68921;SDS011;55959;51.244;5.724;2022-12-17T17:12:56;45.73;;;27.00;;